Time;durP1;ratioP1;P1;durP2;ratioP2;P2;SDS_P1;SDS_P2;PMS_P1;PMS_P2;Temp;Humidity;BMP_temperature;BMP_pressure;BME280_temperature;BME280_humidity;BME280_pressure;Samples;Min_cycle;Max_cycle;Signal;HPM_P1;HPM_P2
2021/12/28 00:01:21;;;;;;;9.53;6.30;;;;;;;8.89;100.00;93843.63;4970480;28;20209;-62
2021/12/28 00:03:47;;;;;;;9.23;6.77;;;;;;;8.95;100.00;93843.09;4969801;28;20234;-59
2021/12/28 00:06:14;;;;;;;10.70;6.37;;;;;;;9.02;100.00;93855.06;4970064;28;20208;-60
2021/12/28 00:08:41;;;;;;;9.73;6.10;;;;;;;9.01;100.00;93852.66;4970088;28;20177;-60
2021/12/28 00:11:08;;;;;;;12.00;6.93;;;;;;;8.92;100.00;93849.25;4969571;28;20204;-60
2021/12/28 00:13:35;;;;;;;10.40;6.47;;;;;;;8.99;100.00;93847.75;4969249;28;20211;-61
2021/12/28 00:18:34;;;;;;;10.00;6.70;;;;;;;9.04;100.00;93860.00;4969837;28;20183;-61
2021/12/28 00:21:03;;;;;;;8.47;5.93;;;;;;;9.05;100.00;93851.47;4968682;28;20210;-62
2021/12/28 00:23:37;;;;;;;12.67;6.13;;;;;;;9.01;100.00;93858.53;4969822;28;20207;-61
2021/12/28 00:26:03;;;;;;;8.10;6.07;;;;;;;9.20;100.00;93857.66;4970101;28;20220;-59
2021/12/28 00:28:29;;;;;;;9.53;6.33;;;;;;;9.10;100.00;93856.91;4969774;28;20209;-62
2021/12/28 00:30:55;;;;;;;9.50;6.30;;;;;;;9.01;100.00;93855.19;4970375;28;20223;-61
2021/12/28 00:33:22;;;;;;;9.70;6.23;;;;;;;8.82;100.00;93857.81;4969493;28;20685;-61
2021/12/28 00:35:48;;;;;;;7.37;5.40;;;;;;;8.87;100.00;93866.59;4970627;28;20656;-59
2021/12/28 00:38:18;;;;;;;9.77;6.70;;;;;;;9.01;100.00;93863.59;4969797;28;20222;-61
2021/12/28 00:40:48;;;;;;;13.87;6.50;;;;;;;9.08;100.00;93864.66;4969940;28;20246;-61
2021/12/28 00:43:13;;;;;;;9.37;5.90;;;;;;;9.10;100.00;93867.03;4969360;28;20176;-60
2021/12/28 00:45:39;;;;;;;8.30;6.03;;;;;;;8.89;100.00;93852.03;4970338;28;20216;-63
2021/12/28 00:48:05;;;;;;;8.70;5.87;;;;;;;9.03;100.00;93854.13;4969938;28;20258;-61
2021/12/28 00:50:31;;;;;;;9.33;6.17;;;;;;;9.23;100.00;93853.09;4969666;28;20268;-63
2021/12/28 00:52:56;;;;;;;10.37;5.90;;;;;;;9.25;100.00;93845.38;4969404;28;20204;-59
2021/12/28 00:55:22;;;;;;;9.03;6.37;;;;;;;9.20;100.00;93847.50;4969029;28;20277;-61
2021/12/28 00:57:48;;;;;;;8.67;6.60;;;;;;;9.17;100.00;93847.81;4969282;28;20173;-60
2021/12/28 01:00:26;;;;;;;10.97;6.93;;;;;;;9.30;100.00;93848.25;4969596;28;20253;-61
2021/12/28 01:02:52;;;;;;;11.43;7.00;;;;;;;9.28;100.00;93847.59;4968817;28;20717;-61
2021/12/28 01:05:19;;;;;;;7.87;6.20;;;;;;;9.29;100.00;93842.38;4971507;28;20219;-58
2021/12/28 01:07:44;;;;;;;10.10;6.97;;;;;;;9.39;100.00;93861.81;4971285;28;20237;-61
2021/12/28 01:10:14;;;;;;;11.00;6.33;;;;;;;9.44;100.00;93860.44;4972436;28;20208;-63
2021/12/28 01:12:39;;;;;;;8.90;5.97;;;;;;;9.42;100.00;93852.19;4972538;28;20193;-63
2021/12/28 01:15:08;;;;;;;11.63;6.53;;;;;;;9.33;100.00;93851.28;4974572;28;20200;-60
2021/12/28 01:17:34;;;;;;;10.10;5.90;;;;;;;9.37;100.00;93868.78;4972510;28;20208;-60
2021/12/28 01:20:00;;;;;;;7.20;6.00;;;;;;;9.30;100.00;93863.47;4973161;28;20191;-62
2021/12/28 01:22:25;;;;;;;11.87;6.10;;;;;;;9.48;100.00;93861.75;4973181;28;20205;-61
2021/12/28 01:24:51;;;;;;;10.07;6.13;;;;;;;9.63;100.00;93864.63;4972501;28;20554;-61
2021/12/28 01:27:16;;;;;;;7.93;5.50;;;;;;;9.47;100.00;93852.56;4972458;28;20216;-59
2021/12/28 01:29:42;;;;;;;9.37;5.73;;;;;;;9.16;100.00;93844.47;4972314;28;20256;-61
2021/12/28 01:32:08;;;;;;;8.43;5.80;;;;;;;9.12;100.00;93852.50;4972373;28;20204;-59
2021/12/28 01:34:34;;;;;;;9.20;5.67;;;;;;;9.30;100.00;93858.41;4972125;28;20271;-62
2021/12/28 01:37:00;;;;;;;7.80;5.37;;;;;;;9.36;100.00;93862.09;4972353;28;20293;-61
2021/12/28 01:39:26;;;;;;;6.77;5.50;;;;;;;9.34;100.00;93852.09;4972564;28;20177;-61
2021/12/28 01:41:52;;;;;;;8.40;5.67;;;;;;;9.36;100.00;93862.91;4973496;28;20253;-61
2021/12/28 01:44:18;;;;;;;10.97;5.87;;;;;;;9.42;100.00;93866.59;4972043;28;20177;-63
2021/12/28 01:49:27;;;;;;;7.30;5.30;;;;;;;9.54;100.00;93858.66;4972278;28;20179;-62
2021/12/28 01:51:53;;;;;;;7.83;5.80;;;;;;;9.55;100.00;93860.28;4972230;28;20208;-61
2021/12/28 01:54:19;;;;;;;7.60;5.43;;;;;;;9.09;100.00;93860.38;4971903;28;20527;-61
2021/12/28 01:56:47;;;;;;;9.00;5.83;;;;;;;9.29;100.00;93859.34;4971960;28;20223;-63
2021/12/28 01:59:16;;;;;;;9.50;5.70;;;;;;;9.32;100.00;93851.44;4973129;28;20677;-61
2021/12/28 02:01:44;;;;;;;8.60;5.57;;;;;;;9.28;100.00;93847.59;4972067;28;20204;-64
2021/12/28 02:04:18;;;;;;;7.40;5.57;;;;;;;9.48;100.00;93851.63;4971675;28;20212;-60
2021/12/28 02:06:45;;;;;;;6.23;5.30;;;;;;;9.70;100.00;93853.75;4972260;28;20268;-60
2021/12/28 02:09:10;;;;;;;6.57;5.27;;;;;;;9.62;100.00;93845.25;4972269;28;20180;-60
2021/12/28 02:11:37;;;;;;;7.70;5.47;;;;;;;9.58;100.00;93842.22;4971864;28;20700;-61
2021/12/28 02:14:05;;;;;;;11.23;5.93;;;;;;;9.63;100.00;93845.13;4970505;28;20195;-62
2021/12/28 02:16:31;;;;;;;9.27;6.20;;;;;;;9.70;100.00;93851.22;4970712;28;20239;-59
2021/12/28 02:18:57;;;;;;;10.00;5.60;;;;;;;9.70;100.00;93843.59;4970593;28;20180;-59
2021/12/28 02:21:22;;;;;;;8.77;5.47;;;;;;;9.71;100.00;93849.47;4971779;28;20215;-60
2021/12/28 02:23:48;;;;;;;8.60;5.20;;;;;;;9.76;100.00;93849.81;4971470;28;20208;-59
2021/12/28 02:26:13;;;;;;;9.40;5.90;;;;;;;9.98;100.00;93862.88;4971424;28;20216;-62
2021/12/28 02:28:39;;;;;;;9.03;5.80;;;;;;;9.97;100.00;93856.22;4971213;28;20172;-59
2021/12/28 02:31:04;;;;;;;7.17;5.97;;;;;;;9.80;100.00;93849.41;4971680;28;20216;-60
2021/12/28 02:33:30;;;;;;;9.50;6.87;;;;;;;9.53;100.00;93846.94;4971802;28;20279;-62
2021/12/28 02:36:00;;;;;;;13.70;6.93;;;;;;;9.25;100.00;93835.22;4971411;28;20224;-62
2021/12/28 02:38:27;;;;;;;12.40;7.00;;;;;;;9.23;100.00;93825.19;4971697;28;20203;-60
2021/12/28 02:40:52;;;;;;;13.17;6.33;;;;;;;9.19;100.00;93826.41;4971421;28;20376;-59
2021/12/28 02:43:19;;;;;;;9.53;6.53;;;;;;;9.08;100.00;93825.81;4971374;28;20272;-61
2021/12/28 02:45:57;;;;;;;9.27;6.67;;;;;;;9.15;100.00;93832.72;4971230;28;20212;-61
2021/12/28 02:48:24;;;;;;;9.90;5.80;;;;;;;9.52;100.00;93845.31;4971646;28;20184;-60
2021/12/28 02:50:56;;;;;;;9.83;6.73;;;;;;;9.51;100.00;93848.00;4972862;28;20236;-60
2021/12/28 02:53:22;;;;;;;10.87;6.83;;;;;;;9.35;100.00;93838.50;4971118;28;20179;-60
2021/12/28 02:55:49;;;;;;;8.73;5.83;;;;;;;9.32;100.00;93837.03;4971469;28;20228;-61
2021/12/28 02:58:35;;;;;;;12.37;6.93;;;;;;;9.56;100.00;93851.69;4971474;28;20180;-61
2021/12/28 03:01:03;;;;;;;11.93;6.27;;;;;;;9.58;100.00;93859.97;4970883;28;20212;-61
2021/12/28 03:03:30;;;;;;;8.93;6.57;;;;;;;9.47;100.00;93852.56;4971397;28;20564;-61
2021/12/28 03:05:58;;;;;;;9.83;6.80;;;;;;;9.48;100.00;93851.63;4970719;28;20212;-62
2021/12/28 03:08:25;;;;;;;10.83;6.80;;;;;;;9.57;100.00;93845.69;4970885;28;20180;-60
2021/12/28 03:10:53;;;;;;;9.13;6.43;;;;;;;9.55;100.00;93855.19;4970024;28;20243;-61
2021/12/28 03:13:26;;;;;;;12.03;6.23;;;;;;;9.27;100.00;93846.03;5052039;22;20705;-60
2021/12/28 03:15:52;;;;;;;7.83;6.20;;;;;;;9.41;100.00;93848.06;5092637;28;20238;-59
2021/12/28 03:18:17;;;;;;;10.83;6.73;;;;;;;9.45;100.00;93859.53;5094246;28;20184;-61
2021/12/28 03:20:43;;;;;;;12.70;6.43;;;;;;;9.53;100.00;93853.72;5092470;28;20199;-60
2021/12/28 03:23:08;;;;;;;9.83;6.27;;;;;;;9.33;100.00;93848.00;5091941;28;20267;-62
2021/12/28 03:25:34;;;;;;;8.23;6.90;;;;;;;9.50;100.00;93854.81;5091444;22;20192;-61
2021/12/28 03:28:01;;;;;;;10.80;6.53;;;;;;;9.53;100.00;93864.69;4951470;28;20188;-60
2021/12/28 03:30:27;;;;;;;11.73;6.57;;;;;;;9.33;100.00;93858.13;4952515;28;20203;-62
2021/12/28 03:32:53;;;;;;;8.90;6.13;;;;;;;9.20;100.00;93850.03;4951869;28;20212;-61
2021/12/28 03:35:19;;;;;;;14.17;6.77;;;;;;;9.37;100.00;93854.38;4951625;28;20330;-60
2021/12/28 03:37:45;;;;;;;12.40;6.73;;;;;;;9.14;100.00;93848.88;4951150;28;20658;-60
2021/12/28 03:40:13;;;;;;;12.13;6.60;;;;;;;8.89;100.00;93839.38;4953661;28;20635;-60
2021/12/28 03:42:40;;;;;;;9.27;6.77;;;;;;;9.13;100.00;93841.44;4951077;28;20270;-62
2021/12/28 03:45:08;;;;;;;13.10;6.97;;;;;;;9.15;100.00;93835.25;4950895;28;20189;-63
2021/12/28 03:47:34;;;;;;;9.80;6.97;;;;;;;9.07;100.00;93839.44;4965674;28;20205;-60
2021/12/28 03:50:00;;;;;;;12.53;7.40;;;;;;;8.92;100.00;93835.78;4950988;28;20181;-60
2021/12/28 03:52:26;;;;;;;12.37;7.30;;;;;;;8.92;100.00;93840.84;4951383;28;20291;-60
2021/12/28 03:54:51;;;;;;;10.60;6.87;;;;;;;8.85;100.00;93839.78;4951140;28;20220;-59
2021/12/28 03:57:17;;;;;;;8.57;6.53;;;;;;;8.75;100.00;93833.97;4951141;28;20217;-62
2021/12/28 03:59:43;;;;;;;12.10;7.20;;;;;;;8.83;100.00;93846.72;4950890;28;20213;-61
2021/12/28 04:02:08;;;;;;;13.60;7.10;;;;;;;8.86;100.00;93849.00;4951286;28;20287;-60
2021/12/28 04:04:34;;;;;;;11.10;6.97;;;;;;;8.69;100.00;93850.53;4950691;28;20275;-60
2021/12/28 04:06:59;;;;;;;10.63;6.30;;;;;;;8.34;100.00;93852.91;4951420;28;20670;-61
2021/12/28 04:09:56;;;;;;;10.10;7.13;;;;;;;8.46;100.00;93847.50;4950738;28;20560;-62
2021/12/28 04:12:11;;;;;;;9.00;6.53;;;;;;;8.79;100.00;93848.75;4950972;28;20225;-59
2021/12/28 04:14:36;;;;;;;12.00;6.87;;;;;;;9.05;100.00;93857.31;4951271;28;20626;-60
2021/12/28 04:17:02;;;;;;;9.43;7.10;;;;;;;9.04;100.00;93852.41;4950790;28;20225;-60
2021/12/28 04:19:27;;;;;;;11.63;7.73;;;;;;;9.00;100.00;93851.88;4949398;28;20189;-61
2021/12/28 04:21:53;;;;;;;12.40;7.17;;;;;;;9.02;100.00;93844.13;4950891;28;20261;-62
2021/12/28 04:24:18;;;;;;;11.30;7.63;;;;;;;9.04;100.00;93854.94;4950682;28;20189;-60
2021/12/28 04:26:44;;;;;;;13.13;7.60;;;;;;;8.88;100.00;93857.25;4951452;28;20359;-63
2021/12/28 04:29:09;;;;;;;12.93;7.70;;;;;;;8.70;100.00;93844.53;4965547;28;20188;-61
2021/12/28 04:31:35;;;;;;;13.83;7.43;;;;;;;8.78;100.00;93853.97;4950595;28;20213;-60
2021/12/28 04:34:01;;;;;;;12.20;8.23;;;;;;;8.96;100.00;93863.25;4950839;28;20177;-61
2021/12/28 04:36:27;;;;;;;10.20;7.37;;;;;;;8.86;100.00;93854.06;4950744;28;20286;-63
2021/12/28 04:38:52;;;;;;;11.37;7.77;;;;;;;8.76;100.00;93860.91;4950452;28;20216;-63
2021/12/28 04:41:18;;;;;;;10.80;7.23;;;;;;;8.76;100.00;93858.38;4950827;28;20325;-60
2021/12/28 04:43:46;;;;;;;9.23;6.57;;;;;;;8.62;100.00;93863.88;4968412;28;20185;-59
2021/12/28 04:46:11;;;;;;;10.13;6.83;;;;;;;8.54;100.00;93864.56;4953648;28;20233;-59
2021/12/28 04:48:37;;;;;;;10.93;7.50;;;;;;;8.70;100.00;93861.47;4953508;28;20231;-60
2021/12/28 04:51:03;;;;;;;12.57;6.77;;;;;;;8.87;100.00;93870.84;4953646;28;20234;-61
2021/12/28 04:53:29;;;;;;;12.13;6.93;;;;;;;8.80;100.00;93867.28;4953524;28;20185;-61
2021/12/28 04:55:54;;;;;;;13.47;7.40;;;;;;;8.94;100.00;93869.38;4959341;23;20232;-62
2021/12/28 04:58:20;;;;;;;10.10;6.83;;;;;;;8.85;100.00;93862.59;4953886;28;20181;-61
2021/12/28 05:00:48;;;;;;;10.77;7.03;;;;;;;8.84;100.00;93861.00;4953636;28;20240;-61
2021/12/28 05:03:14;;;;;;;11.93;7.30;;;;;;;9.11;100.00;93863.59;4953917;28;20177;-60
2021/12/28 05:05:43;;;;;;;10.93;6.80;;;;;;;9.09;100.00;93865.47;4954352;28;20286;-62
2021/12/28 05:08:10;;;;;;;11.33;7.37;;;;;;;8.89;100.00;93868.97;4953943;28;20177;-60
2021/12/28 05:10:36;;;;;;;12.03;7.83;;;;;;;8.51;100.00;93858.97;4953969;28;20232;-62
2021/12/28 05:13:02;;;;;;;11.10;7.23;;;;;;;8.33;100.00;93859.69;4953627;28;20177;-61
2021/12/28 05:15:28;;;;;;;15.43;7.57;;;;;;;8.24;100.00;93864.75;4953289;28;20278;-61
2021/12/28 05:17:54;;;;;;;12.00;7.53;;;;;;;8.28;100.00;93864.34;4954373;28;20250;-59
2021/12/28 05:20:19;;;;;;;11.93;7.27;;;;;;;8.21;100.00;93860.75;4952951;28;20189;-63
2021/12/28 05:22:45;;;;;;;19.13;7.43;;;;;;;8.26;100.00;93861.16;4953141;28;20181;-61
2021/12/28 05:25:10;;;;;;;12.63;7.23;;;;;;;8.38;100.00;93859.28;4951823;29;20197;-60
2021/12/28 05:27:36;;;;;;;11.77;6.87;;;;;;;8.44;100.00;93858.75;4952966;28;20331;-62
2021/12/28 05:30:05;;;;;;;10.33;6.87;;;;;;;8.40;100.00;93865.00;4953282;28;20189;-60
2021/12/28 05:32:30;;;;;;;12.30;6.17;;;;;;;8.30;100.00;93864.22;4952688;28;20200;-62
2021/12/28 05:34:56;;;;;;;13.23;7.50;;;;;;;8.35;100.00;93867.13;4953296;28;20658;-62
2021/12/28 05:37:21;;;;;;;14.47;7.30;;;;;;;8.46;100.00;93869.53;4953173;28;20199;-62
2021/12/28 05:39:47;;;;;;;9.83;7.03;;;;;;;8.60;100.00;93868.28;4959347;22;20312;-61
2021/12/28 05:42:19;;;;;;;10.73;6.83;;;;;;;8.77;100.00;93870.09;4951390;29;20205;-61
2021/12/28 05:44:52;;;;;;;8.10;6.20;;;;;;;8.70;100.00;93866.53;4951712;29;20180;-62
2021/12/28 05:47:19;;;;;;;8.97;6.63;;;;;;;8.76;100.00;93876.91;4953070;28;20722;-61
2021/12/28 05:49:45;;;;;;;8.90;6.53;;;;;;;8.80;100.00;93869.81;4953030;28;20641;-62
2021/12/28 05:52:11;;;;;;;10.60;7.50;;;;;;;8.89;100.00;93872.31;4953151;29;20245;-61
2021/12/28 05:54:36;;;;;;;11.03;7.03;;;;;;;8.93;100.00;93862.69;4953291;29;20212;-60
2021/12/28 05:57:02;;;;;;;11.90;6.20;;;;;;;9.35;100.00;93880.81;4952744;29;20608;-59
2021/12/28 05:59:28;;;;;;;10.73;6.23;;;;;;;9.35;100.00;93878.28;4952776;28;20509;-60
2021/12/28 06:01:53;;;;;;;10.23;6.43;;;;;;;9.25;100.00;93875.78;4952687;29;20241;-60
2021/12/28 06:04:19;;;;;;;11.40;6.30;;;;;;;9.24;100.00;93881.78;4953210;28;20607;-62
2021/12/28 06:06:44;;;;;;;8.67;5.73;;;;;;;9.12;100.00;93872.78;4954037;28;20287;-61
2021/12/28 06:09:10;;;;;;;7.77;6.43;;;;;;;9.12;100.00;93880.38;5037265;28;20193;-61
2021/12/28 06:11:36;;;;;;;10.33;6.87;;;;;;;9.25;100.00;93876.56;4952796;28;20205;-63
2021/12/28 06:14:01;;;;;;;9.53;6.57;;;;;;;9.25;100.00;93875.78;4953120;28;20200;-62
2021/12/28 06:16:28;;;;;;;12.30;6.67;;;;;;;8.91;100.00;93872.19;4953211;29;20223;-62
2021/12/28 06:18:53;;;;;;;8.87;6.17;;;;;;;9.07;100.00;93880.00;4951509;29;20239;-61
2021/12/28 06:21:19;;;;;;;11.03;6.40;;;;;;;9.15;100.00;93882.66;4953283;29;20205;-62
2021/12/28 06:23:45;;;;;;;11.67;6.73;;;;;;;9.10;100.00;93878.00;4952721;28;20661;-61
2021/12/28 06:26:10;;;;;;;16.03;7.43;;;;;;;9.17;100.00;93884.06;4953329;29;20201;-63
2021/12/28 06:28:36;;;;;;;11.53;6.63;;;;;;;9.07;100.00;93888.41;4952688;28;20193;-62
2021/12/28 06:31:01;;;;;;;14.30;8.13;;;;;;;8.87;100.00;93875.91;4953164;28;20641;-62
2021/12/28 06:33:27;;;;;;;11.87;7.90;;;;;;;9.00;100.00;93878.97;4952299;29;20201;-61
2021/12/28 06:35:54;;;;;;;14.17;8.07;;;;;;;8.69;100.00;93877.59;4965919;23;20232;-64
2021/12/28 06:38:21;;;;;;;14.67;10.27;;;;;;;8.32;100.00;93890.97;4989879;28;20194;-60
2021/12/28 06:40:47;;;;;;;15.63;9.17;;;;;;;8.57;100.00;93886.28;4991485;28;20206;-59
2021/12/28 06:43:13;;;;;;;15.90;9.93;;;;;;;8.77;100.00;93882.75;4990874;28;20245;-60
2021/12/28 06:45:38;;;;;;;13.07;9.77;;;;;;;8.76;100.00;93889.59;4990707;28;20286;-62
2021/12/28 06:48:04;;;;;;;16.93;9.97;;;;;;;8.66;100.00;93885.47;4991087;28;20699;-63
2021/12/28 06:50:30;;;;;;;16.47;9.57;;;;;;;9.11;100.00;93899.06;4990703;28;20179;-60
2021/12/28 06:52:56;;;;;;;17.43;9.90;;;;;;;8.99;100.00;93892.56;4990811;28;20191;-61
2021/12/28 06:55:22;;;;;;;14.43;9.97;;;;;;;9.00;100.00;93902.56;4990086;28;20218;-62
2021/12/28 06:57:47;;;;;;;18.93;11.60;;;;;;;9.21;100.00;93909.97;4990476;28;20184;-62
2021/12/28 07:00:17;;;;;;;20.97;11.40;;;;;;;9.19;100.00;93914.38;4990164;28;20183;-61
2021/12/28 07:02:42;;;;;;;16.53;11.27;;;;;;;9.17;100.00;93914.50;4991360;28;20576;-62
2021/12/28 07:05:10;;;;;;;19.17;11.50;;;;;;;9.15;100.00;93908.78;4990474;28;20263;-61
2021/12/28 07:07:36;;;;;;;16.30;12.07;;;;;;;9.04;100.00;93920.84;4973933;28;20749;-60
2021/12/28 07:10:02;;;;;;;20.43;11.63;;;;;;;9.26;100.00;93918.75;4990860;28;20187;-61
2021/12/28 07:12:27;;;;;;;16.87;9.43;;;;;;;9.33;100.00;93924.84;4991356;28;20269;-61
2021/12/28 07:14:53;;;;;;;16.43;8.90;;;;;;;9.45;100.00;93928.00;4990794;28;20570;-63
2021/12/28 07:17:19;;;;;;;16.70;10.10;;;;;;;9.46;100.00;93924.53;4992552;28;20330;-61
2021/12/28 07:19:46;;;;;;;19.30;9.83;;;;;;;9.57;100.00;93937.03;4990906;28;20252;-63
2021/12/28 07:22:12;;;;;;;12.00;9.43;;;;;;;9.55;100.00;93933.84;4991235;28;20219;-61
2021/12/28 07:24:38;;;;;;;12.97;8.93;;;;;;;9.55;100.00;93927.97;4990185;28;20191;-63
2021/12/28 07:27:03;;;;;;;15.23;10.07;;;;;;;9.69;100.00;93925.75;4989532;28;20280;-61
2021/12/28 07:29:29;;;;;;;13.27;9.70;;;;;;;9.85;100.00;93925.91;4988548;28;20620;-62
2021/12/28 07:31:54;;;;;;;12.33;8.97;;;;;;;9.74;100.00;93930.38;4990248;28;20207;-62
2021/12/28 07:34:20;;;;;;;19.17;9.10;;;;;;;9.67;100.00;93925.09;4990036;28;20654;-61
2021/12/28 07:36:46;;;;;;;14.83;10.17;;;;;;;9.62;100.00;93926.44;4990359;28;20696;-60
2021/12/28 07:39:11;;;;;;;16.60;9.53;;;;;;;9.66;100.00;93935.38;4989819;28;20267;-62
2021/12/28 07:41:37;;;;;;;13.60;9.87;;;;;;;9.47;100.00;93930.41;4989446;28;20279;-61
2021/12/28 07:44:03;;;;;;;13.83;9.03;;;;;;;9.66;100.00;93923.47;4988216;28;20653;-62
2021/12/28 07:46:29;;;;;;;16.97;11.13;;;;;;;9.64;100.00;93922.03;4989528;28;20295;-63
2021/12/28 07:48:54;;;;;;;15.93;10.13;;;;;;;9.60;100.00;93925.78;4988946;28;20250;-60
2021/12/28 07:51:20;;;;;;;16.33;10.50;;;;;;;9.53;100.00;93929.84;4989347;28;20200;-63
2021/12/28 07:53:45;;;;;;;13.47;10.37;;;;;;;9.54;100.00;93919.53;4989488;28;20184;-62
2021/12/28 07:56:11;;;;;;;16.77;9.07;;;;;;;9.79;100.00;93938.38;4989934;28;20223;-62
2021/12/28 07:58:36;;;;;;;13.57;7.70;;;;;;;9.65;100.00;93926.16;4988198;28;20191;-61
2021/12/28 08:01:02;;;;;;;16.90;8.80;;;;;;;9.66;100.00;93933.63;4989088;28;20575;-62
2021/12/28 08:03:28;;;;;;;12.87;7.90;;;;;;;9.80;100.00;93933.16;4989367;28;20186;-63
2021/12/28 08:05:53;;;;;;;11.20;7.50;;;;;;;9.72;100.00;93930.53;4989488;28;20208;-63
2021/12/28 08:08:19;;;;;;;12.50;8.17;;;;;;;9.99;100.00;93939.84;4989983;28;20187;-62
2021/12/28 08:10:45;;;;;;;10.47;7.43;;;;;;;10.11;100.00;93942.06;4988988;28;20699;-62
2021/12/28 08:13:11;;;;;;;13.70;8.47;;;;;;;10.25;100.00;93938.22;4989384;28;20184;-62
2021/12/28 08:15:37;;;;;;;11.20;7.87;;;;;;;10.40;100.00;93938.50;4989758;28;20251;-62
2021/12/28 08:18:04;;;;;;;11.47;7.13;;;;;;;10.53;100.00;93938.91;4992641;28;20661;-61
2021/12/28 08:20:30;;;;;;;12.10;7.73;;;;;;;10.59;100.00;93921.34;4992563;28;20193;-63
2021/12/28 08:22:59;;;;;;;12.13;7.67;;;;;;;10.80;100.00;93928.66;4991311;28;20183;-63
2021/12/28 08:25:26;;;;;;;12.90;7.10;;;;;;;10.74;100.00;93934.31;4992727;28;20180;-61
2021/12/28 08:27:52;;;;;;;10.77;7.73;;;;;;;11.18;100.00;93930.78;4992874;28;20183;-64
2021/12/28 08:30:19;;;;;;;12.77;7.20;;;;;;;11.61;100.00;93942.59;4992241;28;20555;-62
2021/12/28 08:32:46;;;;;;;10.07;7.47;;;;;;;12.09;100.00;93944.50;4992467;28;20187;-62
2021/12/28 08:35:12;;;;;;;8.47;6.60;;;;;;;12.62;100.00;93983.13;4992224;28;20183;-59
2021/12/28 08:37:39;;;;;;;11.03;5.90;;;;;;;12.84;100.00;93968.94;4991089;28;20191;-63
2021/12/28 08:40:05;;;;;;;7.00;4.83;;;;;;;13.16;100.00;93979.16;4993176;28;20195;-61
2021/12/28 08:42:31;;;;;;;10.70;5.60;;;;;;;13.48;100.00;93997.75;4990668;28;20564;-63
2021/12/28 08:44:56;;;;;;;6.63;4.70;;;;;;;13.67;100.00;94011.91;4988564;28;20671;-63
2021/12/28 08:47:26;;;;;;;7.63;5.20;;;;;;;13.94;100.00;94010.69;4992578;28;20203;-64
2021/12/28 08:49:53;;;;;;;10.03;5.27;;;;;;;13.94;100.00;93987.69;4990996;28;20267;-63
2021/12/28 08:52:18;;;;;;;7.23;5.10;;;;;;;13.87;100.00;93974.81;4992619;28;20208;-60
2021/12/28 08:54:43;;;;;;;6.07;4.77;;;;;;;14.10;100.00;93987.63;4991993;28;20190;-61
2021/12/28 08:57:09;;;;;;;5.90;4.25;;;;;;;14.34;100.00;94002.88;4992739;28;20579;-62
2021/12/28 08:59:34;;;;;;;8.90;4.70;;;;;;;14.35;100.00;93986.56;4992171;28;20198;-62
2021/12/28 09:02:00;;;;;;;8.80;5.83;;;;;;;14.29;100.00;94005.94;4990813;28;20673;-62
2021/12/28 09:04:26;;;;;;;9.93;6.82;;;;;;;14.06;100.00;93992.28;4991901;28;20184;-63
2021/12/28 09:06:51;;;;;;;13.20;9.10;;;;;;;14.15;100.00;93975.16;4991887;28;20348;-61
2021/12/28 09:09:17;;;;;;;16.52;8.30;;;;;;;14.39;100.00;94002.34;4991769;28;20233;-60
2021/12/28 09:11:43;;;;;;;13.50;7.67;;;;;;;14.41;100.00;93991.00;4991709;28;20272;-60
2021/12/28 09:14:09;;;;;;;13.40;7.80;;;;;;;14.47;100.00;94003.13;4991806;28;20192;-64
2021/12/28 09:16:36;;;;;;;14.80;9.85;;;;;;;14.71;100.00;93997.84;4991974;28;20260;-63
2021/12/28 09:19:02;;;;;;;17.73;10.57;;;;;;;14.86;100.00;94008.94;4990399;28;20184;-62
2021/12/28 09:21:28;;;;;;;12.55;7.25;;;;;;;14.95;99.41;94030.94;4991822;28;20294;-60
2021/12/28 09:23:53;;;;;;;9.63;7.15;;;;;;;14.94;98.99;94026.00;4991620;28;20266;-62
2021/12/28 09:26:19;;;;;;;4.47;3.85;;;;;;;14.91;97.26;94042.47;4991630;28;20673;-62
2021/12/28 09:28:44;;;;;;;8.32;5.47;;;;;;;14.76;98.59;94010.13;4991160;28;20196;-61
2021/12/28 09:31:10;;;;;;;8.85;5.47;;;;;;;14.70;99.05;94003.13;4991844;28;20199;-62
2021/12/28 09:33:35;;;;;;;10.63;7.27;;;;;;;14.49;100.00;93977.34;4991499;28;20187;-64
2021/12/28 09:36:01;;;;;;;8.17;6.07;;;;;;;14.47;100.00;93969.06;4991492;28;20630;-62
2021/12/28 09:38:27;;;;;;;13.30;8.67;;;;;;;14.38;100.00;93962.41;4990467;28;20492;-63
2021/12/28 09:40:54;;;;;;;11.38;8.00;;;;;;;14.32;100.00;93953.69;4991380;28;20285;-60
2021/12/28 09:43:20;;;;;;;10.80;5.93;;;;;;;14.20;100.00;93942.22;4991255;28;20585;-62
2021/12/28 09:45:46;;;;;;;9.20;4.57;;;;;;;14.35;99.91;93975.53;4989804;28;20322;-62
2021/12/28 09:48:12;;;;;;;4.57;3.85;;;;;;;14.19;98.45;93996.84;4989976;28;20317;-62
2021/12/28 09:50:39;;;;;;;7.07;3.80;;;;;;;13.85;100.00;93948.63;4991244;28;20207;-61
2021/12/28 09:53:06;;;;;;;6.33;3.80;;;;;;;13.99;100.00;93939.44;4990109;28;20558;-62
2021/12/28 09:55:32;;;;;;;7.27;3.73;;;;;;;14.22;99.88;93970.97;4990844;28;20296;-61
2021/12/28 09:57:59;;;;;;;7.73;4.13;;;;;;;14.24;99.47;93974.16;4991158;28;20179;-60
2021/12/28 10:00:25;;;;;;;5.23;3.80;;;;;;;14.61;98.91;93981.91;4991143;28;20183;-62
2021/12/28 10:02:52;;;;;;;6.00;3.83;;;;;;;14.55;97.00;94012.50;4990420;28;20179;-62
2021/12/28 10:05:22;;;;;;;7.15;4.05;;;;;;;15.04;96.13;94022.22;4990714;28;20190;-62
2021/12/28 10:07:54;;;;;;;5.75;4.03;;;;;;;15.33;93.61;94061.69;4991120;28;20172;-62
2021/12/28 10:10:20;;;;;;;4.30;3.20;;;;;;;15.55;92.52;94054.00;4990842;28;20164;-62
2021/12/28 10:12:52;;;;;;;4.53;3.85;;;;;;;15.81;91.83;94058.69;4991061;28;20180;-62
2021/12/28 10:15:22;;;;;;;4.90;3.92;;;;;;;16.26;90.77;94067.97;4990469;28;20168;-64
2021/12/28 10:17:50;;;;;;;5.57;4.30;;;;;;;16.58;89.13;94083.78;4990967;28;20561;-60
2021/12/28 10:20:29;;;;;;;5.95;3.90;;;;;;;16.69;87.97;94079.97;4989740;28;20738;-60
2021/12/28 10:22:58;;;;;;;6.28;4.22;;;;;;;16.42;88.49;94066.00;4990916;28;20200;-63
2021/12/28 10:25:49;;;;;;;7.93;4.90;;;;;;;16.14;88.23;94052.22;4990967;28;20180;-61
2021/12/28 10:28:20;;;;;;;7.32;5.30;;;;;;;16.14;88.42;94046.31;4986211;28;20206;-62
2021/12/28 10:30:54;;;;;;;7.20;4.78;;;;;;;16.10;88.29;94038.19;4991081;28;20199;-62
2021/12/28 10:33:29;;;;;;;6.00;5.10;;;;;;;15.88;90.12;94000.63;4991108;28;20174;-63
2021/12/28 10:36:00;;;;;;;6.53;4.85;;;;;;;15.72;90.22;93999.03;4990693;28;20703;-63
2021/12/28 10:38:29;;;;;;;9.68;4.97;;;;;;;15.63;91.79;93961.69;4990816;28;20218;-64
2021/12/28 10:40:59;;;;;;;7.72;4.68;;;;;;;15.81;91.39;93984.38;4989740;28;20645;-63
2021/12/28 10:43:31;;;;;;;6.25;4.22;;;;;;;15.64;91.00;93990.63;4990388;28;20279;-63
2021/12/28 10:46:09;;;;;;;8.50;4.35;;;;;;;15.46;90.85;93983.31;4991283;28;20631;-64
2021/12/28 10:48:42;;;;;;;6.13;4.60;;;;;;;15.32;91.48;93971.25;4989325;28;20640;-65
2021/12/28 10:51:29;;;;;;;5.28;4.70;;;;;;;14.99;92.91;93955.38;4990783;28;20268;-63
2021/12/28 10:56:36;;;;;;;5.72;4.10;;;;;;;14.80;94.45;93930.28;4990794;28;20215;-62
2021/12/28 10:59:07;;;;;;;9.63;4.45;;;;;;;14.79;92.72;93959.41;4990219;28;20226;-63
2021/12/28 11:01:37;;;;;;;6.13;4.53;;;;;;;14.69;93.70;93932.44;4990502;28;20273;-63
2021/12/28 11:04:09;;;;;;;8.80;4.85;;;;;;;14.54;95.92;93899.19;4990387;28;20180;-61
2021/12/28 11:06:38;;;;;;;10.85;5.60;;;;;;;14.56;96.07;93896.44;4990396;28;20206;-63
2021/12/28 11:09:08;;;;;;;6.45;5.30;;;;;;;14.87;95.62;93908.16;4988527;28;20213;-63
2021/12/28 11:11:35;;;;;;;8.48;6.18;;;;;;;14.93;95.70;93898.97;4990557;28;20212;-62
2021/12/28 11:14:06;;;;;;;8.10;5.95;;;;;;;15.03;94.12;93928.47;4990025;28;20207;-62
2021/12/28 11:16:32;;;;;;;5.88;4.78;;;;;;;15.19;94.56;93914.72;4989736;28;20235;-64
2021/12/28 11:19:00;;;;;;;8.57;6.03;;;;;;;14.85;95.28;93891.38;4990218;28;20184;-63
2021/12/28 11:21:29;;;;;;;7.82;5.70;;;;;;;14.67;96.44;93894.25;4990321;28;20215;-63
2021/12/28 11:24:00;;;;;;;6.50;5.45;;;;;;;14.28;97.35;93873.16;4990373;28;20267;-63
2021/12/28 11:26:38;;;;;;;5.93;5.05;;;;;;;14.51;95.32;93907.19;4990344;28;20748;-60
2021/12/28 11:29:16;;;;;;;5.63;4.90;;;;;;;14.86;94.00;93927.03;4989920;28;20184;-63
2021/12/28 11:31:52;;;;;;;7.90;5.32;;;;;;;15.11;94.03;93920.72;4990246;28;20744;-62
2021/12/28 11:34:21;;;;;;;7.88;5.25;;;;;;;15.26;92.67;93940.41;4989970;28;20275;-63